sensor_id;sensor_type;location;lat;lon;timestamp;P1;durP1;ratioP1;P2;durP2;ratioP2
60241;SDS011;46103;52.076;113.488;2023-05-10T00:02:44;81.55;;;35.85;;
60241;SDS011;46103;52.076;113.488;2023-05-10T00:05:49;83.57;;;37.50;;
60241;SDS011;46103;52.076;113.488;2023-05-10T00:08:52;88.93;;;36.63;;
60241;SDS011;46103;52.076;113.488;2023-05-10T00:11:56;84.57;;;36.20;;
60241;SDS011;46103;52.076;113.488;2023-05-10T00:15:01;69.07;;;35.33;;
60241;SDS011;46103;52.076;113.488;2023-05-10T00:18:06;75.22;;;35.58;;
60241;SDS011;46103;52.076;113.488;2023-05-10T00:21:09;73.85;;;35.20;;
60241;SDS011;46103;52.076;113.488;2023-05-10T00:24:13;75.68;;;34.95;;
60241;SDS011;46103;52.076;113.488;2023-05-10T00:27:17;74.65;;;35.42;;
60241;SDS011;46103;52.076;113.488;2023-05-10T00:30:20;66.85;;;32.83;;
60241;SDS011;46103;52.076;113.488;2023-05-10T00:33:24;66.78;;;33.67;;
60241;SDS011;46103;52.076;113.488;2023-05-10T00:36:28;62.70;;;32.80;;
60241;SDS011;46103;52.076;113.488;2023-05-10T00:39:32;66.65;;;31.35;;
60241;SDS011;46103;52.076;113.488;2023-05-10T00:42:36;64.07;;;28.55;;
60241;SDS011;46103;52.076;113.488;2023-05-10T00:45:41;70.13;;;32.15;;
60241;SDS011;46103;52.076;113.488;2023-05-10T00:48:45;59.85;;;31.73;;
60241;SDS011;46103;52.076;113.488;2023-05-10T00:51:49;66.75;;;31.48;;
60241;SDS011;46103;52.076;113.488;2023-05-10T00:54:54;73.18;;;32.70;;
60241;SDS011;46103;52.076;113.488;2023-05-10T00:57:58;66.90;;;31.95;;
60241;SDS011;46103;52.076;113.488;2023-05-10T01:01:02;65.20;;;31.73;;
60241;SDS011;46103;52.076;113.488;2023-05-10T01:04:06;59.05;;;31.08;;
60241;SDS011;46103;52.076;113.488;2023-05-10T01:07:10;65.05;;;31.38;;
60241;SDS011;46103;52.076;113.488;2023-05-10T01:10:14;57.15;;;30.60;;
60241;SDS011;46103;52.076;113.488;2023-05-10T01:13:21;63.97;;;32.60;;
60241;SDS011;46103;52.076;113.488;2023-05-10T01:16:38;62.30;;;31.10;;
60241;SDS011;46103;52.076;113.488;2023-05-10T01:19:43;61.50;;;32.50;;
60241;SDS011;46103;52.076;113.488;2023-05-10T01:29:45;69.13;;;35.63;;
60241;SDS011;46103;52.076;113.488;2023-05-10T01:36:45;78.22;;;36.65;;
60241;SDS011;46103;52.076;113.488;2023-05-10T01:40:42;64.18;;;35.17;;
60241;SDS011;46103;52.076;113.488;2023-05-10T01:43:57;74.97;;;37.63;;
60241;SDS011;46103;52.076;113.488;2023-05-10T01:47:11;86.45;;;38.50;;
60241;SDS011;46103;52.076;113.488;2023-05-10T01:50:24;78.35;;;37.72;;
60241;SDS011;46103;52.076;113.488;2023-05-10T01:53:32;78.88;;;38.28;;
60241;SDS011;46103;52.076;113.488;2023-05-10T01:56:38;77.93;;;38.25;;
60241;SDS011;46103;52.076;113.488;2023-05-10T01:59:44;63.65;;;37.25;;
60241;SDS011;46103;52.076;113.488;2023-05-10T02:02:52;72.28;;;37.65;;
60241;SDS011;46103;52.076;113.488;2023-05-10T02:05:56;74.53;;;37.22;;
60241;SDS011;46103;52.076;113.488;2023-05-10T02:09:01;77.05;;;38.83;;
60241;SDS011;46103;52.076;113.488;2023-05-10T02:12:06;76.47;;;35.03;;
60241;SDS011;46103;52.076;113.488;2023-05-10T02:15:11;75.28;;;36.45;;
60241;SDS011;46103;52.076;113.488;2023-05-10T02:21:21;72.97;;;35.92;;
60241;SDS011;46103;52.076;113.488;2023-05-10T02:24:25;73.97;;;35.33;;
60241;SDS011;46103;52.076;113.488;2023-05-10T02:27:30;73.55;;;35.78;;
60241;SDS011;46103;52.076;113.488;2023-05-10T02:30:33;68.38;;;31.95;;
60241;SDS011;46103;52.076;113.488;2023-05-10T02:33:38;61.53;;;31.20;;
60241;SDS011;46103;52.076;113.488;2023-05-10T02:36:43;53.53;;;27.65;;
60241;SDS011;46103;52.076;113.488;2023-05-10T02:39:47;56.35;;;27.08;;
60241;SDS011;46103;52.076;113.488;2023-05-10T02:42:54;49.33;;;28.42;;
60241;SDS011;46103;52.076;113.488;2023-05-10T02:45:59;52.95;;;25.05;;
60241;SDS011;46103;52.076;113.488;2023-05-10T02:49:02;43.88;;;24.92;;
60241;SDS011;46103;52.076;113.488;2023-05-10T02:52:06;42.85;;;25.00;;
60241;SDS011;46103;52.076;113.488;2023-05-10T02:55:12;43.90;;;25.63;;
60241;SDS011;46103;52.076;113.488;2023-05-10T02:58:19;56.75;;;26.13;;
60241;SDS011;46103;52.076;113.488;2023-05-10T03:01:23;50.63;;;26.23;;
60241;SDS011;46103;52.076;113.488;2023-05-10T03:04:26;46.15;;;23.63;;
60241;SDS011;46103;52.076;113.488;2023-05-10T03:07:32;45.70;;;25.38;;
60241;SDS011;46103;52.076;113.488;2023-05-10T03:10:38;45.10;;;25.17;;
60241;SDS011;46103;52.076;113.488;2023-05-10T03:17:04;53.60;;;24.65;;
60241;SDS011;46103;52.076;113.488;2023-05-10T03:20:16;52.72;;;26.27;;
60241;SDS011;46103;52.076;113.488;2023-05-10T03:23:45;49.97;;;25.02;;
60241;SDS011;46103;52.076;113.488;2023-05-10T03:26:54;48.80;;;24.95;;
60241;SDS011;46103;52.076;113.488;2023-05-10T03:30:02;39.53;;;23.48;;
60241;SDS011;46103;52.076;113.488;2023-05-10T03:33:08;42.55;;;22.90;;
60241;SDS011;46103;52.076;113.488;2023-05-10T03:36:15;36.55;;;21.15;;
60241;SDS011;46103;52.076;113.488;2023-05-10T03:39:18;33.65;;;20.70;;
60241;SDS011;46103;52.076;113.488;2023-05-10T03:42:28;35.10;;;20.45;;
60241;SDS011;46103;52.076;113.488;2023-05-10T03:45:32;39.55;;;20.63;;
60241;SDS011;46103;52.076;113.488;2023-05-10T03:48:36;40.50;;;21.83;;
60241;SDS011;46103;52.076;113.488;2023-05-10T03:51:39;37.17;;;22.08;;
60241;SDS011;46103;52.076;113.488;2023-05-10T03:54:43;33.47;;;21.42;;
60241;SDS011;46103;52.076;113.488;2023-05-10T03:57:46;39.13;;;22.05;;
60241;SDS011;46103;52.076;113.488;2023-05-10T04:00:52;42.13;;;22.03;;
60241;SDS011;46103;52.076;113.488;2023-05-10T04:03:55;44.33;;;22.42;;
60241;SDS011;46103;52.076;113.488;2023-05-10T04:06:58;45.63;;;22.10;;
60241;SDS011;46103;52.076;113.488;2023-05-10T04:10:02;33.22;;;20.15;;
60241;SDS011;46103;52.076;113.488;2023-05-10T04:13:06;38.70;;;20.63;;
60241;SDS011;46103;52.076;113.488;2023-05-10T04:16:10;36.05;;;21.20;;
60241;SDS011;46103;52.076;113.488;2023-05-10T04:19:13;30.70;;;20.58;;
60241;SDS011;46103;52.076;113.488;2023-05-10T04:22:16;35.28;;;20.20;;
60241;SDS011;46103;52.076;113.488;2023-05-10T04:25:20;35.20;;;20.63;;
60241;SDS011;46103;52.076;113.488;2023-05-10T04:28:23;38.10;;;18.48;;
60241;SDS011;46103;52.076;113.488;2023-05-10T04:31:26;36.00;;;18.77;;
60241;SDS011;46103;52.076;113.488;2023-05-10T04:34:30;29.05;;;17.63;;
60241;SDS011;46103;52.076;113.488;2023-05-10T04:37:33;32.20;;;17.58;;
60241;SDS011;46103;52.076;113.488;2023-05-10T04:40:37;24.35;;;14.07;;
60241;SDS011;46103;52.076;113.488;2023-05-10T04:43:40;27.95;;;14.98;;
60241;SDS011;46103;52.076;113.488;2023-05-10T04:46:44;23.45;;;14.18;;
60241;SDS011;46103;52.076;113.488;2023-05-10T04:49:48;21.95;;;13.90;;
60241;SDS011;46103;52.076;113.488;2023-05-10T04:52:51;21.48;;;13.15;;
60241;SDS011;46103;52.076;113.488;2023-05-10T04:55:55;25.90;;;14.00;;
60241;SDS011;46103;52.076;113.488;2023-05-10T04:58:58;21.27;;;14.40;;
60241;SDS011;46103;52.076;113.488;2023-05-10T05:02:01;21.20;;;13.23;;
60241;SDS011;46103;52.076;113.488;2023-05-10T05:05:05;22.73;;;13.77;;
60241;SDS011;46103;52.076;113.488;2023-05-10T05:08:08;20.98;;;12.27;;
60241;SDS011;46103;52.076;113.488;2023-05-10T05:11:11;21.02;;;11.38;;
60241;SDS011;46103;52.076;113.488;2023-05-10T05:14:14;15.57;;;9.65;;
60241;SDS011;46103;52.076;113.488;2023-05-10T05:17:18;20.08;;;10.45;;
60241;SDS011;46103;52.076;113.488;2023-05-10T05:20:21;16.77;;;8.25;;
60241;SDS011;46103;52.076;113.488;2023-05-10T05:23:25;15.23;;;9.05;;
60241;SDS011;46103;52.076;113.488;2023-05-10T05:26:28;14.70;;;8.80;;
60241;SDS011;46103;52.076;113.488;2023-05-10T05:29:31;14.43;;;8.70;;
60241;SDS011;46103;52.076;113.488;2023-05-10T05:32:35;20.63;;;8.10;;
60241;SDS011;46103;52.076;113.488;2023-05-10T05:35:39;14.65;;;8.45;;
60241;SDS011;46103;52.076;113.488;2023-05-10T05:38:43;11.38;;;8.07;;
60241;SDS011;46103;52.076;113.488;2023-05-10T05:41:48;11.77;;;8.48;;
60241;SDS011;46103;52.076;113.488;2023-05-10T05:44:52;12.50;;;7.93;;
60241;SDS011;46103;52.076;113.488;2023-05-10T05:47:55;12.52;;;7.85;;
60241;SDS011;46103;52.076;113.488;2023-05-10T05:50:59;13.23;;;7.95;;
60241;SDS011;46103;52.076;113.488;2023-05-10T05:54:04;11.07;;;7.00;;
60241;SDS011;46103;52.076;113.488;2023-05-10T05:57:08;17.63;;;7.15;;
60241;SDS011;46103;52.076;113.488;2023-05-10T06:00:12;11.40;;;7.57;;
60241;SDS011;46103;52.076;113.488;2023-05-10T06:03:16;10.80;;;6.47;;
60241;SDS011;46103;52.076;113.488;2023-05-10T06:06:21;11.98;;;6.05;;
60241;SDS011;46103;52.076;113.488;2023-05-10T06:09:26;13.77;;;6.25;;
60241;SDS011;46103;52.076;113.488;2023-05-10T06:12:30;13.63;;;6.30;;
60241;SDS011;46103;52.076;113.488;2023-05-10T06:15:34;10.73;;;5.95;;
60241;SDS011;46103;52.076;113.488;2023-05-10T06:18:38;15.30;;;5.40;;
60241;SDS011;46103;52.076;113.488;2023-05-10T06:21:42;19.60;;;6.10;;
60241;SDS011;46103;52.076;113.488;2023-05-10T06:24:45;17.90;;;6.22;;
60241;SDS011;46103;52.076;113.488;2023-05-10T06:27:49;9.20;;;5.60;;
60241;SDS011;46103;52.076;113.488;2023-05-10T06:30:55;24.10;;;4.97;;
60241;SDS011;46103;52.076;113.488;2023-05-10T06:33:59;11.68;;;6.75;;
60241;SDS011;46103;52.076;113.488;2023-05-10T06:37:03;13.77;;;6.72;;
60241;SDS011;46103;52.076;113.488;2023-05-10T06:40:07;12.30;;;6.72;;
60241;SDS011;46103;52.076;113.488;2023-05-10T06:43:11;9.43;;;6.03;;
60241;SDS011;46103;52.076;113.488;2023-05-10T06:46:15;10.10;;;6.05;;
60241;SDS011;46103;52.076;113.488;2023-05-10T06:49:19;9.48;;;5.43;;
60241;SDS011;46103;52.076;113.488;2023-05-10T06:52:22;10.90;;;5.80;;
60241;SDS011;46103;52.076;113.488;2023-05-10T06:55:26;15.18;;;6.32;;
60241;SDS011;46103;52.076;113.488;2023-05-10T06:58:29;10.52;;;6.55;;
60241;SDS011;46103;52.076;113.488;2023-05-10T07:01:35;15.70;;;7.22;;
60241;SDS011;46103;52.076;113.488;2023-05-10T07:04:39;11.75;;;7.03;;
60241;SDS011;46103;52.076;113.488;2023-05-10T07:07:43;14.27;;;7.57;;
60241;SDS011;46103;52.076;113.488;2023-05-10T07:10:47;22.23;;;8.27;;
60241;SDS011;46103;52.076;113.488;2023-05-10T07:13:50;11.50;;;7.30;;
60241;SDS011;46103;52.076;113.488;2023-05-10T07:16:54;14.75;;;7.32;;
60241;SDS011;46103;52.076;113.488;2023-05-10T07:19:58;20.13;;;8.10;;
60241;SDS011;46103;52.076;113.488;2023-05-10T07:23:03;14.00;;;7.35;;
60241;SDS011;46103;52.076;113.488;2023-05-10T07:26:06;12.25;;;7.63;;
60241;SDS011;46103;52.076;113.488;2023-05-10T07:29:11;15.80;;;8.32;;
60241;SDS011;46103;52.076;113.488;2023-05-10T07:32:14;14.18;;;7.78;;
60241;SDS011;46103;52.076;113.488;2023-05-10T07:35:18;13.88;;;7.53;;
60241;SDS011;46103;52.076;113.488;2023-05-10T07:38:22;16.30;;;7.45;;
60241;SDS011;46103;52.076;113.488;2023-05-10T07:41:26;11.98;;;6.40;;
60241;SDS011;46103;52.076;113.488;2023-05-10T07:44:30;19.27;;;7.57;;
60241;SDS011;46103;52.076;113.488;2023-05-10T07:47:34;16.30;;;7.93;;
60241;SDS011;46103;52.076;113.488;2023-05-10T07:50:37;18.98;;;8.32;;
60241;SDS011;46103;52.076;113.488;2023-05-10T07:53:41;25.58;;;8.02;;
60241;SDS011;46103;52.076;113.488;2023-05-10T07:56:44;18.10;;;8.73;;
60241;SDS011;46103;52.076;113.488;2023-05-10T07:59:50;12.90;;;7.30;;
60241;SDS011;46103;52.076;113.488;2023-05-10T08:02:53;14.75;;;8.30;;
60241;SDS011;46103;52.076;113.488;2023-05-10T08:05:57;14.82;;;7.93;;
60241;SDS011;46103;52.076;113.488;2023-05-10T08:09:02;15.02;;;8.15;;
60241;SDS011;46103;52.076;113.488;2023-05-10T08:12:06;12.57;;;8.05;;
60241;SDS011;46103;52.076;113.488;2023-05-10T08:15:10;18.70;;;8.85;;
60241;SDS011;46103;52.076;113.488;2023-05-10T08:18:14;18.98;;;9.32;;
60241;SDS011;46103;52.076;113.488;2023-05-10T08:21:17;16.42;;;9.45;;
60241;SDS011;46103;52.076;113.488;2023-05-10T08:24:23;14.30;;;8.60;;
60241;SDS011;46103;52.076;113.488;2023-05-10T08:27:27;16.85;;;8.32;;
60241;SDS011;46103;52.076;113.488;2023-05-10T08:30:31;15.10;;;8.10;;
60241;SDS011;46103;52.076;113.488;2023-05-10T08:33:34;14.15;;;8.02;;
60241;SDS011;46103;52.076;113.488;2023-05-10T08:36:38;16.95;;;8.30;;
60241;SDS011;46103;52.076;113.488;2023-05-10T08:39:42;13.60;;;8.15;;
60241;SDS011;46103;52.076;113.488;2023-05-10T08:43:05;18.90;;;9.05;;
60241;SDS011;46103;52.076;113.488;2023-05-10T08:46:10;19.38;;;8.55;;
60241;SDS011;46103;52.076;113.488;2023-05-10T08:49:18;20.27;;;8.65;;
60241;SDS011;46103;52.076;113.488;2023-05-10T08:52:22;26.92;;;8.88;;
60241;SDS011;46103;52.076;113.488;2023-05-10T08:55:30;12.57;;;7.45;;
60241;SDS011;46103;52.076;113.488;2023-05-10T08:58:35;17.83;;;7.57;;
60241;SDS011;46103;52.076;113.488;2023-05-10T09:01:40;15.65;;;8.50;;
60241;SDS011;46103;52.076;113.488;2023-05-10T09:04:44;11.85;;;7.95;;
60241;SDS011;46103;52.076;113.488;2023-05-10T09:07:48;15.68;;;8.18;;
60241;SDS011;46103;52.076;113.488;2023-05-10T09:10:52;15.00;;;7.82;;
60241;SDS011;46103;52.076;113.488;2023-05-10T09:13:57;15.68;;;8.30;;
60241;SDS011;46103;52.076;113.488;2023-05-10T09:17:01;13.52;;;7.70;;
60241;SDS011;46103;52.076;113.488;2023-05-10T09:20:05;13.50;;;8.35;;
60241;SDS011;46103;52.076;113.488;2023-05-10T09:23:10;13.20;;;7.88;;
60241;SDS011;46103;52.076;113.488;2023-05-10T09:26:13;18.20;;;9.35;;
60241;SDS011;46103;52.076;113.488;2023-05-10T09:29:16;18.13;;;9.15;;
60241;SDS011;46103;52.076;113.488;2023-05-10T09:32:20;29.52;;;8.45;;
60241;SDS011;46103;52.076;113.488;2023-05-10T09:35:24;11.57;;;6.80;;
60241;SDS011;46103;52.076;113.488;2023-05-10T09:38:35;12.82;;;6.57;;
60241;SDS011;46103;52.076;113.488;2023-05-10T09:41:51;19.13;;;5.90;;
60241;SDS011;46103;52.076;113.488;2023-05-10T09:44:59;12.07;;;4.72;;
60241;SDS011;46103;52.076;113.488;2023-05-10T09:48:09;12.40;;;3.78;;
60241;SDS011;46103;52.076;113.488;2023-05-10T09:51:20;19.80;;;4.28;;
60241;SDS011;46103;52.076;113.488;2023-05-10T09:54:26;23.75;;;5.43;;
60241;SDS011;46103;52.076;113.488;2023-05-10T09:57:30;20.63;;;5.43;;
60241;SDS011;46103;52.076;113.488;2023-05-10T10:00:36;14.20;;;4.85;;
60241;SDS011;46103;52.076;113.488;2023-05-10T10:03:42;7.78;;;4.72;;
60241;SDS011;46103;52.076;113.488;2023-05-10T10:06:46;16.67;;;5.32;;
60241;SDS011;46103;52.076;113.488;2023-05-10T10:10:01;14.63;;;4.70;;
60241;SDS011;46103;52.076;113.488;2023-05-10T10:13:05;12.55;;;5.22;;
60241;SDS011;46103;52.076;113.488;2023-05-10T10:16:09;10.85;;;4.35;;
60241;SDS011;46103;52.076;113.488;2023-05-10T10:19:13;9.38;;;4.22;;
60241;SDS011;46103;52.076;113.488;2023-05-10T10:22:17;8.52;;;4.10;;
60241;SDS011;46103;52.076;113.488;2023-05-10T10:25:21;13.77;;;5.15;;
60241;SDS011;46103;52.076;113.488;2023-05-10T10:32:03;9.93;;;5.18;;
60241;SDS011;46103;52.076;113.488;2023-05-10T10:35:11;7.53;;;3.92;;
60241;SDS011;46103;52.076;113.488;2023-05-10T10:38:14;12.90;;;4.32;;
60241;SDS011;46103;52.076;113.488;2023-05-10T10:41:33;10.57;;;4.85;;
60241;SDS011;46103;52.076;113.488;2023-05-10T10:44:38;12.40;;;4.82;;
60241;SDS011;46103;52.076;113.488;2023-05-10T10:48:25;12.38;;;4.78;;
60241;SDS011;46103;52.076;113.488;2023-05-10T10:51:26;10.57;;;5.13;;
60241;SDS011;46103;52.076;113.488;2023-05-10T10:54:32;6.68;;;4.05;;
60241;SDS011;46103;52.076;113.488;2023-05-10T10:57:43;11.73;;;5.07;;
60241;SDS011;46103;52.076;113.488;2023-05-10T11:01:16;11.90;;;5.18;;
60241;SDS011;46103;52.076;113.488;2023-05-10T11:04:21;12.77;;;4.47;;
60241;SDS011;46103;52.076;113.488;2023-05-10T11:07:25;13.95;;;5.07;;
60241;SDS011;46103;52.076;113.488;2023-05-10T11:10:29;12.77;;;4.70;;
60241;SDS011;46103;52.076;113.488;2023-05-10T11:13:34;14.18;;;4.47;;
60241;SDS011;46103;52.076;113.488;2023-05-10T11:16:42;8.95;;;4.10;;
60241;SDS011;46103;52.076;113.488;2023-05-10T11:20:02;10.25;;;4.03;;
60241;SDS011;46103;52.076;113.488;2023-05-10T11:23:11;11.05;;;5.03;;
60241;SDS011;46103;52.076;113.488;2023-05-10T11:26:18;15.52;;;5.10;;
60241;SDS011;46103;52.076;113.488;2023-05-10T11:29:25;12.98;;;5.82;;
60241;SDS011;46103;52.076;113.488;2023-05-10T11:32:29;17.30;;;6.22;;
60241;SDS011;46103;52.076;113.488;2023-05-10T11:35:39;13.13;;;5.65;;
60241;SDS011;46103;52.076;113.488;2023-05-10T11:38:45;16.42;;;6.20;;
60241;SDS011;46103;52.076;113.488;2023-05-10T11:41:48;11.10;;;4.55;;
60241;SDS011;46103;52.076;113.488;2023-05-10T11:44:52;13.80;;;5.50;;
60241;SDS011;46103;52.076;113.488;2023-05-10T11:47:56;19.77;;;7.05;;
60241;SDS011;46103;52.076;113.488;2023-05-10T11:51:00;27.95;;;8.63;;
60241;SDS011;46103;52.076;113.488;2023-05-10T11:54:08;18.60;;;6.68;;
60241;SDS011;46103;52.076;113.488;2023-05-10T11:57:13;19.80;;;6.95;;
60241;SDS011;46103;52.076;113.488;2023-05-10T12:00:17;14.10;;;6.38;;
60241;SDS011;46103;52.076;113.488;2023-05-10T12:03:21;18.45;;;7.30;;
60241;SDS011;46103;52.076;113.488;2023-05-10T12:06:40;15.32;;;6.45;;
60241;SDS011;46103;52.076;113.488;2023-05-10T12:10:02;23.40;;;7.47;;
60241;SDS011;46103;52.076;113.488;2023-05-10T12:13:20;14.00;;;6.47;;
60241;SDS011;46103;52.076;113.488;2023-05-10T12:16:39;16.55;;;6.78;;
60241;SDS011;46103;52.076;113.488;2023-05-10T12:20:13;14.52;;;6.40;;
60241;SDS011;46103;52.076;113.488;2023-05-10T12:23:54;15.50;;;7.07;;
60241;SDS011;46103;52.076;113.488;2023-05-10T12:36:38;12.32;;;5.65;;
60241;SDS011;46103;52.076;113.488;2023-05-10T12:40:06;13.30;;;6.15;;
60241;SDS011;46103;52.076;113.488;2023-05-10T12:50:27;12.25;;;6.85;;
60241;SDS011;46103;52.076;113.488;2023-05-10T12:53:33;15.10;;;7.45;;
60241;SDS011;46103;52.076;113.488;2023-05-10T12:56:36;20.63;;;7.68;;
60241;SDS011;46103;52.076;113.488;2023-05-10T12:59:51;18.35;;;7.95;;
60241;SDS011;46103;52.076;113.488;2023-05-10T13:02:56;15.23;;;7.00;;
60241;SDS011;46103;52.076;113.488;2023-05-10T13:06:34;17.38;;;8.00;;
60241;SDS011;46103;52.076;113.488;2023-05-10T13:13:16;19.45;;;8.75;;
60241;SDS011;46103;52.076;113.488;2023-05-10T13:16:34;18.38;;;8.98;;
60241;SDS011;46103;52.076;113.488;2023-05-10T13:19:38;22.88;;;8.77;;
60241;SDS011;46103;52.076;113.488;2023-05-10T13:22:42;23.67;;;10.43;;
60241;SDS011;46103;52.076;113.488;2023-05-10T13:25:47;25.30;;;10.52;;
60241;SDS011;46103;52.076;113.488;2023-05-10T13:29:07;26.63;;;10.50;;
60241;SDS011;46103;52.076;113.488;2023-05-10T13:32:20;26.02;;;10.23;;
60241;SDS011;46103;52.076;113.488;2023-05-10T13:36:10;22.48;;;9.45;;
60241;SDS011;46103;52.076;113.488;2023-05-10T13:40:44;23.05;;;9.27;;
60241;SDS011;46103;52.076;113.488;2023-05-10T13:43:47;24.75;;;8.57;;
60241;SDS011;46103;52.076;113.488;2023-05-10T13:51:35;11.60;;;4.63;;
60241;SDS011;46103;52.076;113.488;2023-05-10T13:56:01;17.48;;;7.07;;
60241;SDS011;46103;52.076;113.488;2023-05-10T14:07:07;10.77;;;5.72;;
60241;SDS011;46103;52.076;113.488;2023-05-10T14:10:32;13.60;;;5.50;;
60241;SDS011;46103;52.076;113.488;2023-05-10T14:14:03;12.50;;;6.10;;
60241;SDS011;46103;52.076;113.488;2023-05-10T14:18:50;10.80;;;5.32;;
60241;SDS011;46103;52.076;113.488;2023-05-10T14:22:35;13.88;;;6.70;;
60241;SDS011;46103;52.076;113.488;2023-05-10T14:26:27;8.57;;;4.95;;
60241;SDS011;46103;52.076;113.488;2023-05-10T14:29:32;14.88;;;5.80;;
60241;SDS011;46103;52.076;113.488;2023-05-10T14:32:51;12.23;;;5.47;;
60241;SDS011;46103;52.076;113.488;2023-05-10T14:36:10;6.32;;;3.65;;
60241;SDS011;46103;52.076;113.488;2023-05-10T14:39:18;9.98;;;4.20;;
60241;SDS011;46103;52.076;113.488;2023-05-10T14:43:00;6.55;;;3.70;;
60241;SDS011;46103;52.076;113.488;2023-05-10T14:46:40;9.68;;;4.20;;
60241;SDS011;46103;52.076;113.488;2023-05-10T14:53:57;6.70;;;3.65;;
60241;SDS011;46103;52.076;113.488;2023-05-10T14:57:36;9.82;;;4.45;;
60241;SDS011;46103;52.076;113.488;2023-05-10T15:01:14;8.38;;;4.80;;
60241;SDS011;46103;52.076;113.488;2023-05-10T15:05:28;11.60;;;4.65;;
60241;SDS011;46103;52.076;113.488;2023-05-10T15:08:48;11.35;;;4.88;;
60241;SDS011;46103;52.076;113.488;2023-05-10T15:13:06;9.55;;;4.70;;
60241;SDS011;46103;52.076;113.488;2023-05-10T15:16:10;8.02;;;5.15;;
60241;SDS011;46103;52.076;113.488;2023-05-10T15:19:30;9.00;;;5.47;;
60241;SDS011;46103;52.076;113.488;2023-05-10T15:22:39;15.98;;;5.22;;
60241;SDS011;46103;52.076;113.488;2023-05-10T15:25:46;7.80;;;4.30;;
60241;SDS011;46103;52.076;113.488;2023-05-10T15:29:06;9.55;;;4.18;;
60241;SDS011;46103;52.076;113.488;2023-05-10T15:32:25;9.60;;;3.80;;
60241;SDS011;46103;52.076;113.488;2023-05-10T15:35:34;10.13;;;4.57;;
60241;SDS011;46103;52.076;113.488;2023-05-10T15:38:54;9.75;;;4.70;;
60241;SDS011;46103;52.076;113.488;2023-05-10T15:45:20;6.63;;;4.13;;
60241;SDS011;46103;52.076;113.488;2023-05-10T15:48:39;6.57;;;3.72;;
60241;SDS011;46103;52.076;113.488;2023-05-10T15:51:59;8.25;;;4.78;;
60241;SDS011;46103;52.076;113.488;2023-05-10T15:55:05;9.52;;;4.20;;
60241;SDS011;46103;52.076;113.488;2023-05-10T15:58:28;6.72;;;3.55;;
60241;SDS011;46103;52.076;113.488;2023-05-10T16:01:47;7.13;;;4.05;;
60241;SDS011;46103;52.076;113.488;2023-05-10T16:05:06;7.22;;;4.05;;
60241;SDS011;46103;52.076;113.488;2023-05-10T16:08:14;6.85;;;3.90;;
60241;SDS011;46103;52.076;113.488;2023-05-10T16:11:33;6.18;;;3.75;;
60241;SDS011;46103;52.076;113.488;2023-05-10T16:14:51;8.77;;;4.10;;
60241;SDS011;46103;52.076;113.488;2023-05-10T16:17:59;9.02;;;4.22;;
60241;SDS011;46103;52.076;113.488;2023-05-10T16:21:07;7.55;;;3.75;;
60241;SDS011;46103;52.076;113.488;2023-05-10T16:24:16;8.88;;;3.78;;
60241;SDS011;46103;52.076;113.488;2023-05-10T16:27:23;6.60;;;3.85;;
60241;SDS011;46103;52.076;113.488;2023-05-10T16:30:33;9.88;;;4.00;;
60241;SDS011;46103;52.076;113.488;2023-05-10T16:33:40;6.53;;;3.60;;
60241;SDS011;46103;52.076;113.488;2023-05-10T16:36:48;10.98;;;4.40;;
60241;SDS011;46103;52.076;113.488;2023-05-10T16:39:58;11.73;;;4.22;;
60241;SDS011;46103;52.076;113.488;2023-05-10T16:43:03;7.95;;;4.10;;
60241;SDS011;46103;52.076;113.488;2023-05-10T16:46:22;11.13;;;4.82;;
60241;SDS011;46103;52.076;113.488;2023-05-10T16:49:41;6.35;;;3.67;;
60241;SDS011;46103;52.076;113.488;2023-05-10T16:52:46;6.30;;;3.55;;
60241;SDS011;46103;52.076;113.488;2023-05-10T16:55:52;8.88;;;4.18;;
60241;SDS011;46103;52.076;113.488;2023-05-10T16:58:57;8.55;;;3.90;;
60241;SDS011;46103;52.076;113.488;2023-05-10T17:02:03;7.63;;;4.07;;
60241;SDS011;46103;52.076;113.488;2023-05-10T17:05:09;12.67;;;4.50;;
60241;SDS011;46103;52.076;113.488;2023-05-10T17:08:18;9.63;;;3.90;;
60241;SDS011;46103;52.076;113.488;2023-05-10T17:11:24;11.40;;;5.57;;
60241;SDS011;46103;52.076;113.488;2023-05-10T17:14:30;7.90;;;3.55;;
60241;SDS011;46103;52.076;113.488;2023-05-10T17:17:36;8.93;;;4.35;;
60241;SDS011;46103;52.076;113.488;2023-05-10T17:20:42;11.02;;;3.80;;
60241;SDS011;46103;52.076;113.488;2023-05-10T17:23:47;10.85;;;4.68;;
60241;SDS011;46103;52.076;113.488;2023-05-10T17:26:54;14.43;;;4.57;;
60241;SDS011;46103;52.076;113.488;2023-05-10T17:30:01;8.50;;;4.07;;
60241;SDS011;46103;52.076;113.488;2023-05-10T17:33:08;7.40;;;3.97;;
60241;SDS011;46103;52.076;113.488;2023-05-10T17:36:15;13.90;;;5.15;;
60241;SDS011;46103;52.076;113.488;2023-05-10T17:39:29;7.22;;;4.40;;
60241;SDS011;46103;52.076;113.488;2023-05-10T17:42:34;10.82;;;4.70;;
60241;SDS011;46103;52.076;113.488;2023-05-10T17:45:39;9.20;;;5.10;;
60241;SDS011;46103;52.076;113.488;2023-05-10T17:48:46;9.45;;;4.65;;
60241;SDS011;46103;52.076;113.488;2023-05-10T17:51:51;8.95;;;4.95;;
60241;SDS011;46103;52.076;113.488;2023-05-10T17:55:10;7.88;;;3.67;;
60241;SDS011;46103;52.076;113.488;2023-05-10T17:58:21;13.48;;;4.70;;
60241;SDS011;46103;52.076;113.488;2023-05-10T18:01:40;12.32;;;5.50;;
60241;SDS011;46103;52.076;113.488;2023-05-10T18:04:46;15.23;;;4.70;;
60241;SDS011;46103;52.076;113.488;2023-05-10T18:08:05;12.77;;;4.50;;
60241;SDS011;46103;52.076;113.488;2023-05-10T18:11:24;10.52;;;5.10;;
60241;SDS011;46103;52.076;113.488;2023-05-10T18:14:32;8.75;;;4.57;;
60241;SDS011;46103;52.076;113.488;2023-05-10T18:17:43;10.23;;;4.93;;
60241;SDS011;46103;52.076;113.488;2023-05-10T18:20:50;12.57;;;4.47;;
60241;SDS011;46103;52.076;113.488;2023-05-10T18:24:12;11.82;;;4.47;;
60241;SDS011;46103;52.076;113.488;2023-05-10T18:27:39;13.50;;;4.20;;
60241;SDS011;46103;52.076;113.488;2023-05-10T18:30:45;7.85;;;3.28;;
60241;SDS011;46103;52.076;113.488;2023-05-10T18:34:05;7.20;;;3.90;;
60241;SDS011;46103;52.076;113.488;2023-05-10T18:37:11;8.00;;;4.20;;
60241;SDS011;46103;52.076;113.488;2023-05-10T18:40:35;9.75;;;3.88;;
60241;SDS011;46103;52.076;113.488;2023-05-10T18:43:42;9.35;;;3.92;;
60241;SDS011;46103;52.076;113.488;2023-05-10T18:46:48;18.20;;;4.90;;
60241;SDS011;46103;52.076;113.488;2023-05-10T18:49:57;8.68;;;4.05;;
60241;SDS011;46103;52.076;113.488;2023-05-10T18:53:17;8.18;;;4.03;;
60241;SDS011;46103;52.076;113.488;2023-05-10T18:56:22;8.82;;;4.35;;
60241;SDS011;46103;52.076;113.488;2023-05-10T18:59:29;14.68;;;4.55;;
60241;SDS011;46103;52.076;113.488;2023-05-10T19:02:49;7.55;;;4.25;;
60241;SDS011;46103;52.076;113.488;2023-05-10T19:06:13;12.20;;;4.13;;
60241;SDS011;46103;52.076;113.488;2023-05-10T19:09:20;9.55;;;3.95;;
60241;SDS011;46103;52.076;113.488;2023-05-10T19:12:26;8.27;;;4.15;;
60241;SDS011;46103;52.076;113.488;2023-05-10T19:16:04;10.60;;;3.97;;